Time;durP1;ratioP1;P1;durP2;ratioP2;P2;SDS_P1;SDS_P2;PMS_P1;PMS_P2;Temp;Humidity;BMP_temperature;BMP_pressure;BME280_temperature;BME280_humidity;BME280_pressure;Samples;Min_cycle;Max_cycle;Signal;HPM_P1;HPM_P2
2022/12/16 00:00:37;;;;;;;70.72;24.58;;;;;;;-3.50;100.00;97445.81;2621310;28;20048;-87
2022/12/16 00:02:09;;;;;;;72.82;26.45;;;;;;;-3.42;100.00;97443.34;2622424;28;20055;-89
2022/12/16 00:03:25;;;;;;;65.38;24.63;;;;;;;-3.47;100.00;97437.31;2620671;28;20045;-88
2022/12/16 00:04:40;;;;;;;68.28;24.58;;;;;;;-3.41;100.00;97429.69;2620892;28;20131;-87
2022/12/16 00:05:56;;;;;;;82.32;25.42;;;;;;;-3.47;100.00;97427.91;2622233;28;20073;-87
2022/12/16 00:07:12;;;;;;;72.93;25.95;;;;;;;-3.29;100.00;97428.97;2622599;28;20044;-87
2022/12/16 00:08:28;;;;;;;71.72;25.17;;;;;;;-3.19;100.00;97420.53;2620211;28;20048;-87
2022/12/16 00:09:43;;;;;;;74.35;23.70;;;;;;;-3.12;100.00;97416.34;2623330;28;20495;-86
2022/12/16 00:11:00;;;;;;;73.63;26.02;;;;;;;-3.19;100.00;97412.03;2621904;28;20058;-87
2022/12/16 00:12:15;;;;;;;67.05;23.73;;;;;;;-3.30;100.00;97410.19;2619722;28;20048;-87
2022/12/16 00:13:33;;;;;;;72.20;24.30;;;;;;;-3.22;100.00;97407.72;2621954;28;20044;-86
2022/12/16 00:14:48;;;;;;;68.95;23.02;;;;;;;-3.19;100.00;97412.84;2620396;28;20063;-90
2022/12/16 00:16:13;;;;;;;69.75;22.13;;;;;;;-3.14;100.00;97410.34;2620154;28;20068;-87
2022/12/16 00:17:29;;;;;;;68.50;23.38;;;;;;;-3.62;100.00;97418.38;2619326;28;20134;-87
2022/12/16 00:18:45;;;;;;;67.90;23.75;;;;;;;-3.76;100.00;97419.91;2621672;28;20150;-87
2022/12/16 00:20:02;;;;;;;71.22;24.63;;;;;;;-3.45;100.00;97413.44;2620019;28;20084;-87
2022/12/16 00:21:19;;;;;;;82.85;26.30;;;;;;;-3.41;100.00;97419.47;2622841;28;20402;-87
2022/12/16 00:22:34;;;;;;;67.10;23.77;;;;;;;-3.88;100.00;97424.03;2620121;28;20049;-87
2022/12/16 00:23:50;;;;;;;78.43;26.10;;;;;;;-3.75;100.00;97424.19;2619941;28;20550;-86
2022/12/16 00:25:06;;;;;;;71.03;24.73;;;;;;;-3.49;100.00;97415.94;2620806;28;20388;-87
2022/12/16 00:26:22;;;;;;;64.15;23.77;;;;;;;-3.34;100.00;97405.03;2620907;28;20127;-87
2022/12/16 00:27:37;;;;;;;72.70;25.58;;;;;;;-3.34;100.00;97395.66;2620107;28;20048;-87
2022/12/16 00:28:53;;;;;;;69.47;24.45;;;;;;;-3.39;100.00;97397.28;2618673;28;20051;-87
2022/12/16 00:30:09;;;;;;;64.72;23.58;;;;;;;-3.13;100.00;97395.00;2620265;28;20449;-87
2022/12/16 00:31:26;;;;;;;78.85;26.08;;;;;;;-3.10;100.00;97396.72;2620486;28;20076;-87
2022/12/16 00:32:41;;;;;;;68.28;24.55;;;;;;;-3.29;100.00;97396.56;2620418;28;20093;-87
2022/12/16 00:33:58;;;;;;;71.00;22.58;;;;;;;-3.27;100.00;97392.31;2619682;28;20161;-87
2022/12/16 00:35:13;;;;;;;63.78;22.50;;;;;;;-2.91;100.00;97384.09;2622587;28;20070;-87
2022/12/16 00:36:29;;;;;;;72.30;25.50;;;;;;;-3.03;100.00;97375.47;2622063;28;20048;-87
2022/12/16 00:37:46;;;;;;;67.05;22.15;;;;;;;-3.14;100.00;97371.94;2620796;28;20052;-87
2022/12/16 00:39:02;;;;;;;56.05;20.27;;;;;;;-3.37;100.00;97377.69;2620378;28;20098;-88
2022/12/16 00:40:18;;;;;;;72.00;24.83;;;;;;;-3.29;100.00;97372.66;2622171;28;20048;-88
2022/12/16 00:41:34;;;;;;;65.07;23.45;;;;;;;-3.55;100.00;97374.09;2621868;28;20044;-87
2022/12/16 00:42:50;;;;;;;61.47;22.80;;;;;;;-3.46;100.00;97370.78;2622915;28;20047;-86
2022/12/16 00:44:05;;;;;;;72.85;25.05;;;;;;;-3.71;100.00;97372.22;2621403;28;20351;-88
2022/12/16 00:45:21;;;;;;;66.20;22.77;;;;;;;-4.07;100.00;97365.81;2621487;28;20095;-87
2022/12/16 00:46:36;;;;;;;69.60;25.20;;;;;;;-3.93;100.00;97371.13;2619101;28;20060;-87
2022/12/16 00:47:52;;;;;;;72.13;25.50;;;;;;;-3.92;100.00;97368.56;2619912;28;20495;-90
2022/12/16 00:49:08;;;;;;;77.97;26.13;;;;;;;-3.75;100.00;97362.81;2619988;28;20052;-88
2022/12/16 00:50:24;;;;;;;62.90;23.10;;;;;;;-4.02;100.00;97361.63;2621645;28;20493;-88
2022/12/16 00:51:40;;;;;;;61.17;21.13;;;;;;;-4.12;100.00;97364.06;2620304;28;20081;-87
2022/12/16 00:52:55;;;;;;;66.47;22.98;;;;;;;-4.12;100.00;97352.97;2623341;28;20055;-87
2022/12/16 00:54:11;;;;;;;54.53;19.05;;;;;;;-3.98;100.00;97353.16;2624367;28;20072;-87
2022/12/16 00:55:27;;;;;;;63.88;23.02;;;;;;;-3.61;100.00;97351.03;2621591;28;20044;-86
2022/12/16 00:56:43;;;;;;;61.97;20.73;;;;;;;-3.88;100.00;97355.00;2621727;28;20055;-87
2022/12/16 00:57:58;;;;;;;61.38;20.83;;;;;;;-3.94;100.00;97360.00;2621035;28;20384;-87
2022/12/16 00:59:14;;;;;;;65.22;23.45;;;;;;;-3.68;100.00;97356.91;2622009;28;20051;-87
2022/12/16 01:00:29;;;;;;;62.22;23.55;;;;;;;-3.74;100.00;97369.63;2621495;28;20076;-87
2022/12/16 01:01:45;;;;;;;62.35;22.35;;;;;;;-3.45;100.00;97359.69;2623916;28;20445;-88
2022/12/16 01:03:01;;;;;;;57.92;21.23;;;;;;;-3.76;100.00;97355.97;2624294;28;20055;-88
2022/12/16 01:04:17;;;;;;;63.67;22.13;;;;;;;-3.67;100.00;97355.22;2623401;28;20048;-88
2022/12/16 01:05:32;;;;;;;50.10;18.40;;;;;;;-3.72;100.00;97356.00;2621912;28;20052;-90
2022/12/16 01:06:48;;;;;;;64.10;20.13;;;;;;;-3.67;100.00;97353.50;2622527;28;20059;-89
2022/12/16 01:08:03;;;;;;;57.53;22.20;;;;;;;-3.73;100.00;97353.44;2623640;28;20048;-87
2022/12/16 01:09:20;;;;;;;62.72;22.23;;;;;;;-3.49;100.00;97351.97;2622676;28;20418;-87
2022/12/16 01:10:36;;;;;;;63.92;21.83;;;;;;;-3.66;100.00;97355.22;2621831;28;20054;-93
2022/12/16 01:11:51;;;;;;;62.03;22.77;;;;;;;-3.63;100.00;97352.72;2622740;28;20055;-89
2022/12/16 01:13:06;;;;;;;56.13;20.33;;;;;;;-3.54;100.00;97351.94;2622631;28;20495;-86
2022/12/16 01:14:22;;;;;;;69.05;23.40;;;;;;;-3.44;100.00;97348.63;2621842;28;20059;-88
2022/12/16 01:15:38;;;;;;;56.92;21.10;;;;;;;-3.94;100.00;97360.00;2623285;28;20060;-86
2022/12/16 01:16:53;;;;;;;66.68;22.90;;;;;;;-3.96;100.00;97356.59;2621764;28;20561;-91
2022/12/16 01:18:09;;;;;;;61.33;21.75;;;;;;;-3.68;100.00;97356.91;2623311;28;20555;-87
2022/12/16 01:19:25;;;;;;;60.20;21.70;;;;;;;-3.66;100.00;97350.09;2621493;28;20048;-87
2022/12/16 01:20:41;;;;;;;66.75;22.73;;;;;;;-3.85;100.00;97352.47;2624353;28;20059;-87
2022/12/16 01:21:56;;;;;;;59.83;20.35;;;;;;;-3.74;100.00;97350.00;2623178;28;20059;-86
2022/12/16 01:23:12;;;;;;;47.90;18.60;;;;;;;-3.64;100.00;97350.97;2622510;28;20211;-87
2022/12/16 01:24:27;;;;;;;66.70;22.98;;;;;;;-3.60;100.00;97349.31;2624549;28;20048;-87
2022/12/16 01:25:43;;;;;;;58.72;21.50;;;;;;;-3.41;100.00;97355.47;2621749;28;20413;-87
2022/12/16 01:26:59;;;;;;;61.85;21.25;;;;;;;-3.34;100.00;97354.72;2620350;28;20048;-89
2022/12/16 01:28:14;;;;;;;66.07;24.40;;;;;;;-3.77;100.00;97347.44;2622499;28;20130;-87
2022/12/16 01:29:30;;;;;;;65.95;23.58;;;;;;;-3.80;100.00;97344.84;2623448;28;20579;-88
2022/12/16 01:30:45;;;;;;;52.45;20.27;;;;;;;-3.89;100.00;97340.50;2623802;28;20048;-87
2022/12/16 01:32:01;;;;;;;65.05;22.42;;;;;;;-3.76;100.00;97336.34;2623054;28;20052;-87
2022/12/16 01:33:16;;;;;;;65.80;22.35;;;;;;;-3.75;100.00;97342.34;2622137;28;20392;-86
2022/12/16 01:34:32;;;;;;;56.08;21.15;;;;;;;-3.61;100.00;97340.78;2620999;28;20079;-86
2022/12/16 01:35:48;;;;;;;64.88;22.48;;;;;;;-3.38;100.00;97329.91;2623460;28;20048;-86
2022/12/16 01:37:03;;;;;;;60.45;21.38;;;;;;;-3.30;100.00;97338.53;2622188;28;20497;-89
2022/12/16 01:38:19;;;;;;;51.70;20.38;;;;;;;-3.65;100.00;97340.75;2624036;28;20674;-89
2022/12/16 01:39:34;;;;;;;62.88;21.52;;;;;;;-3.56;100.00;97344.25;2624264;28;20048;-87
2022/12/16 01:40:50;;;;;;;62.85;21.40;;;;;;;-3.76;100.00;97349.16;2623099;28;20067;-87
2022/12/16 01:42:15;;;;;;;55.70;20.55;;;;;;;-3.49;100.00;97347.72;2621388;28;20048;-89
2022/12/16 01:43:33;;;;;;;62.97;21.30;;;;;;;-3.28;100.00;97343.69;2622949;28;20055;-87
2022/12/16 01:44:50;;;;;;;64.88;21.67;;;;;;;-3.13;100.00;97338.69;2623863;28;20174;-87
2022/12/16 01:46:15;;;;;;;62.47;21.27;;;;;;;-3.15;100.00;97336.94;2621872;28;20056;-86
2022/12/16 01:47:32;;;;;;;61.70;22.90;;;;;;;-3.28;100.00;97333.44;2622369;28;20048;-87
2022/12/16 01:49:00;;;;;;;65.63;22.30;;;;;;;-3.24;100.00;97335.16;2624614;28;20040;-87
2022/12/16 01:50:16;;;;;;;57.10;20.17;;;;;;;-3.15;100.00;97331.81;2622392;28;20048;-89
2022/12/16 01:51:36;;;;;;;55.95;21.50;;;;;;;-3.19;100.00;97324.97;2620626;28;20088;-86
2022/12/16 01:52:56;;;;;;;51.85;19.48;;;;;;;-3.30;100.00;97323.16;2621655;28;20589;-86
2022/12/16 01:54:19;;;;;;;60.55;21.80;;;;;;;-3.08;100.00;97319.94;2621980;28;20597;-86
2022/12/16 01:55:44;;;;;;;57.92;21.30;;;;;;;-3.07;100.00;97327.66;2622488;28;20055;-86
2022/12/16 01:57:08;;;;;;;54.15;20.83;;;;;;;-3.07;100.00;97330.19;2622844;28;20599;-86
2022/12/16 01:58:29;;;;;;;55.38;17.90;;;;;;;-3.31;100.00;97334.25;2623993;28;20064;-86
2022/12/16 01:59:48;;;;;;;59.95;21.38;;;;;;;-3.16;100.00;97327.56;2624184;28;20056;-85
2022/12/16 02:01:04;;;;;;;56.25;19.52;;;;;;;-3.04;100.00;97322.53;2623769;28;20052;-86
2022/12/16 02:02:20;;;;;;;59.10;20.70;;;;;;;-3.03;100.00;97329.38;2621608;28;20490;-88
2022/12/16 02:03:37;;;;;;;47.97;19.17;;;;;;;-2.95;100.00;97326.00;2620020;28;20124;-85
2022/12/16 02:06:29;;;;;;;48.47;17.30;;;;;;;-2.99;100.00;97315.75;2622208;28;20313;-86
2022/12/16 02:08:03;;;;;;;26.83;12.55;;;;;;;-3.01;100.00;97319.13;2622376;28;20498;-86
2022/12/16 02:09:19;;;;;;;32.75;13.63;;;;;;;-3.49;100.00;97321.25;2622514;28;20509;-86
2022/12/16 02:10:40;;;;;;;59.05;20.08;;;;;;;-3.15;100.00;97316.47;2623936;28;20479;-86
2022/12/16 02:12:34;;;;;;;40.67;13.43;;;;;;;-3.06;100.00;97316.56;2623793;28;20212;-88
2022/12/16 02:14:21;;;;;;;41.30;16.48;;;;;;;-2.86;100.00;97324.38;2623420;28;20491;-91
2022/12/16 02:15:44;;;;;;;46.80;16.70;;;;;;;-2.90;100.00;97324.34;2620966;28;20578;-85
2022/12/16 02:17:17;;;;;;;36.58;13.55;;;;;;;-2.76;100.00;97327.00;2621789;28;20086;-86
2022/12/16 02:18:40;;;;;;;48.25;17.65;;;;;;;-2.80;100.00;97321.00;2620892;28;20072;-86
2022/12/16 02:20:17;;;;;;;41.60;15.80;;;;;;;-2.95;100.00;97331.13;2620735;28;20666;-85
2022/12/16 02:21:42;;;;;;;36.55;15.93;;;;;;;-3.00;100.00;97334.50;2622019;28;20461;-85
2022/12/16 02:23:09;;;;;;;53.45;17.50;;;;;;;-2.78;100.00;97329.56;2620398;28;20049;-87
2022/12/16 02:24:56;;;;;;;48.25;17.95;;;;;;;-2.75;100.00;97331.28;2620027;28;20056;-86
2022/12/16 02:26:14;;;;;;;45.80;17.55;;;;;;;-2.83;100.00;97338.91;2621043;28;20067;-86
2022/12/16 02:27:41;;;;;;;60.47;20.63;;;;;;;-2.92;100.00;97332.00;2622360;28;20067;-88
2022/12/16 02:29:36;;;;;;;52.17;18.25;;;;;;;-3.27;100.00;97333.44;2620399;28;20101;-86
2022/12/16 02:30:52;;;;;;;48.10;18.45;;;;;;;-3.12;100.00;97342.09;2620865;28;20094;-86
2022/12/16 02:32:19;;;;;;;66.40;22.50;;;;;;;-2.95;100.00;97339.69;2622466;28;20044;-86
2022/12/16 02:33:47;;;;;;;54.30;20.15;;;;;;;-3.40;100.00;97339.28;2623269;28;20636;-86
2022/12/16 02:35:11;;;;;;;57.63;19.35;;;;;;;-3.24;100.00;97334.28;2621872;28;20051;-85
2022/12/16 02:36:30;;;;;;;51.00;19.67;;;;;;;-3.26;100.00;97337.69;2623433;28;20509;-85
2022/12/16 02:37:52;;;;;;;58.35;19.10;;;;;;;-3.12;100.00;97336.97;2621620;28;20072;-85
2022/12/16 02:39:24;;;;;;;61.65;21.42;;;;;;;-3.03;100.00;97338.75;2622445;28;20150;-85
2022/12/16 02:40:50;;;;;;;63.15;22.33;;;;;;;-2.96;100.00;97335.41;2622497;28;20048;-86
2022/12/16 02:42:29;;;;;;;68.15;21.42;;;;;;;-3.03;100.00;97329.38;2620244;28;20094;-91
2022/12/16 02:43:50;;;;;;;62.45;20.35;;;;;;;-2.84;100.00;97332.06;2622888;28;20478;-86
2022/12/16 02:45:18;;;;;;;62.20;21.38;;;;;;;-2.71;100.00;97325.34;2622658;28;20052;-87
2022/12/16 02:46:42;;;;;;;46.70;18.15;;;;;;;-3.02;100.00;97328.53;2621182;28;20051;-89
2022/12/16 02:47:58;;;;;;;56.03;19.27;;;;;;;-3.06;100.00;97318.25;2621151;28;20903;-86
2022/12/16 02:49:13;;;;;;;57.60;20.33;;;;;;;-3.00;100.00;97319.16;2622778;28;20173;-86
2022/12/16 02:50:50;;;;;;;65.15;23.63;;;;;;;-2.93;100.00;97326.88;2621589;28;20052;-85
2022/12/16 02:52:06;;;;;;;54.55;20.63;;;;;;;-2.88;100.00;97320.94;2622176;28;20539;-87
2022/12/16 02:53:22;;;;;;;70.25;23.55;;;;;;;-2.71;100.00;97326.19;2620421;28;20067;-86
2022/12/16 02:54:38;;;;;;;69.47;23.25;;;;;;;-2.82;100.00;97322.69;2621078;28;20049;-85
2022/12/16 02:56:06;;;;;;;59.60;23.92;;;;;;;-2.52;100.00;97321.16;2620730;28;20563;-85
2022/12/16 02:57:43;;;;;;;60.25;20.45;;;;;;;-2.44;100.00;97319.53;2620170;28;20047;-86
2022/12/16 02:59:34;;;;;;;51.05;19.45;;;;;;;-3.14;100.00;97325.88;2622649;28;20131;-86
2022/12/16 03:01:01;;;;;;;52.17;18.08;;;;;;;-2.79;100.00;97325.28;2599704;28;20079;-86
2022/12/16 03:02:29;;;;;;;50.05;19.90;;;;;;;-2.82;100.00;97325.25;2609847;28;20652;-86
2022/12/16 03:03:50;;;;;;;44.63;16.75;;;;;;;-2.78;100.00;97321.00;2621296;28;20089;-88
2022/12/16 03:05:17;;;;;;;62.38;22.30;;;;;;;-2.88;100.00;97326.06;2620741;28;20086;-86
2022/12/16 03:06:35;;;;;;;54.42;20.02;;;;;;;-2.87;100.00;97327.78;2621393;28;20489;-86
2022/12/16 03:07:54;;;;;;;60.47;20.42;;;;;;;-2.94;100.00;97328.59;2621949;28;20075;-86
2022/12/16 03:09:13;;;;;;;44.42;16.52;;;;;;;-2.98;100.00;97327.69;2621551;28;20048;-86
2022/12/16 03:10:34;;;;;;;60.35;20.67;;;;;;;-3.39;100.00;97338.44;2620528;28;20586;-86
2022/12/16 03:11:51;;;;;;;55.17;20.10;;;;;;;-3.08;100.00;97336.13;2623663;28;20044;-85
2022/12/16 03:13:10;;;;;;;53.78;17.73;;;;;;;-2.87;100.00;97335.44;2621821;28;20056;-86
2022/12/16 03:14:31;;;;;;;58.45;20.85;;;;;;;-2.72;100.00;97337.28;2622277;28;20495;-90
2022/12/16 03:15:48;;;;;;;56.88;19.92;;;;;;;-2.39;100.00;97337.50;2620323;28;20110;-86
2022/12/16 03:17:06;;;;;;;58.75;20.55;;;;;;;-2.60;100.00;97339.06;2619691;28;20101;-86
2022/12/16 03:18:23;;;;;;;62.10;22.13;;;;;;;-2.36;100.00;97341.78;2622673;28;20653;-87
2022/12/16 03:19:42;;;;;;;58.45;20.45;;;;;;;-2.45;100.00;97345.13;2620004;28;20490;-86
2022/12/16 03:21:02;;;;;;;59.03;23.15;;;;;;;-2.38;100.00;97331.50;2621772;28;20195;-86
2022/12/16 03:22:22;;;;;;;60.05;20.35;;;;;;;-2.49;100.00;97335.72;2622406;28;20105;-86
2022/12/16 03:23:53;;;;;;;57.72;21.45;;;;;;;-2.63;100.00;97325.41;2621025;28;20052;-86
2022/12/16 03:25:10;;;;;;;49.97;19.85;;;;;;;-2.51;100.00;97335.72;2620043;28;20141;-86
2022/12/16 03:26:37;;;;;;;57.35;21.02;;;;;;;-2.61;100.00;97336.50;2621474;28;20171;-86
2022/12/16 03:27:59;;;;;;;58.00;19.90;;;;;;;-2.60;100.00;97338.22;2620414;28;20514;-86
2022/12/16 03:29:29;;;;;;;51.07;19.33;;;;;;;-2.56;100.00;97345.94;2621588;28;20622;-87
2022/12/16 03:30:52;;;;;;;54.00;19.38;;;;;;;-2.94;100.00;97343.94;2621950;28;20566;-85
2022/12/16 03:32:34;;;;;;;59.63;21.23;;;;;;;-2.90;100.00;97348.25;2620139;28;20051;-85
2022/12/16 03:33:59;;;;;;;55.47;19.58;;;;;;;-2.52;100.00;97344.22;2621426;28;20558;-85
2022/12/16 03:35:24;;;;;;;72.13;22.65;;;;;;;-2.50;100.00;97350.25;2620980;28;20510;-85
2022/12/16 03:36:42;;;;;;;54.33;21.50;;;;;;;-2.57;100.00;97353.59;2622820;28;20044;-86
2022/12/16 03:38:01;;;;;;;59.00;20.90;;;;;;;-2.30;100.00;97339.25;2622812;28;20226;-85
2022/12/16 03:39:19;;;;;;;52.88;19.98;;;;;;;-2.43;100.00;97336.59;2621487;28;20072;-86
2022/12/16 03:40:37;;;;;;;50.83;18.60;;;;;;;-2.38;100.00;97340.91;2621247;28;20044;-86
2022/12/16 03:41:54;;;;;;;55.65;20.67;;;;;;;-2.48;100.00;97340.88;2621538;28;20044;-85
2022/12/16 03:43:13;;;;;;;55.65;19.42;;;;;;;-2.49;100.00;97336.59;2622952;28;20087;-85
2022/12/16 03:44:29;;;;;;;56.13;20.90;;;;;;;-2.56;100.00;97340.81;2623015;28;20048;-86
2022/12/16 03:45:50;;;;;;;59.70;21.13;;;;;;;-2.38;100.00;97338.34;2620340;28;20586;-86
2022/12/16 03:47:06;;;;;;;52.80;21.52;;;;;;;-2.30;100.00;97342.69;2621616;28;20105;-86
2022/12/16 03:48:24;;;;;;;57.75;21.33;;;;;;;-2.64;100.00;97339.06;2622387;28;20070;-86
2022/12/16 03:49:40;;;;;;;54.40;20.58;;;;;;;-2.73;100.00;97335.56;2620170;28;20057;-86
2022/12/16 03:50:55;;;;;;;60.42;22.20;;;;;;;-2.76;100.00;97338.13;2622351;28;20048;-86
2022/12/16 03:52:11;;;;;;;61.10;22.75;;;;;;;-2.50;100.00;97340.00;2620269;28;20056;-86
2022/12/16 03:53:27;;;;;;;63.58;23.20;;;;;;;-2.57;100.00;97339.09;2620738;28;20501;-87
2022/12/16 03:54:42;;;;;;;66.10;24.88;;;;;;;-2.50;100.00;97337.44;2619859;28;20113;-86
2022/12/16 03:55:58;;;;;;;64.53;24.90;;;;;;;-2.36;100.00;97328.97;2620323;28;20063;-86
2022/12/16 03:57:13;;;;;;;59.20;22.05;;;;;;;-2.36;100.00;97329.81;2620354;28;20044;-86
2022/12/16 03:58:29;;;;;;;64.47;24.40;;;;;;;-2.33;100.00;97329.81;2622807;28;20059;-86
2022/12/16 03:59:45;;;;;;;56.42;21.67;;;;;;;-2.49;100.00;97331.47;2621307;28;20111;-86
2022/12/16 04:01:00;;;;;;;49.95;17.00;;;;;;;-2.53;100.00;97331.44;2620717;28;20049;-86
2022/12/16 04:02:16;;;;;;;56.33;20.02;;;;;;;-2.85;100.00;97327.78;2622105;28;20097;-85
2022/12/16 04:03:31;;;;;;;55.95;22.02;;;;;;;-2.87;100.00;97332.06;2622248;28;20106;-85
2022/12/16 04:04:47;;;;;;;46.10;19.38;;;;;;;-2.93;100.00;97332.84;2622136;28;20446;-85
2022/12/16 04:06:03;;;;;;;54.58;20.10;;;;;;;-2.90;100.00;97334.59;2622979;28;20071;-86
2022/12/16 04:07:19;;;;;;;46.83;17.08;;;;;;;-2.94;100.00;97330.28;2621494;28;20052;-87
2022/12/16 04:08:35;;;;;;;49.78;19.52;;;;;;;-2.80;100.00;97326.13;2622499;28;20059;-86
2022/12/16 04:09:51;;;;;;;45.10;17.40;;;;;;;-2.62;100.00;97320.25;2620075;28;20407;-85
2022/12/16 04:25:34;;;;;;;33.08;10.35;;;;;;;-2.33;100.00;97311.03;2620890;28;20294;-85
2022/12/16 04:28:24;;;;;;;33.17;12.10;;;;;;;-2.47;100.00;97313.50;2623293;28;20048;-85
2022/12/16 04:30:17;;;;;;;37.10;13.40;;;;;;;-2.50;100.00;97314.38;2622491;28;20048;-85
2022/12/16 04:31:18;;;;;;;38.15;13.43;;;;;;;-2.56;100.00;97317.75;2620946;28;20574;-85
2022/12/16 04:34:26;;;;;;;40.90;13.70;;;;;;;-2.35;100.00;97328.13;2622709;28;20175;-87
